aviador You're here:

VOCL Decoded Metar

CALICUT in INDIA
Report Time2018-02-22 08:00:00
UTC Time2018-02-22 08:34:22
Flight Rules vfr VFR
Wind260° at 10 kt
W.Decomp.*RWY 28: 9.5 kt HW 3.1 kt LCW
W.Rank260° ranks 8
Current wind is above 260° avg. (6.9)
Visibility8000 m
Phenomena:N/A
Clouds:Few 015 Hf
Expected CloudBase > 5,200 ft AGL from Temp-Dew spread
CeilingNone
Temp33°C (ISA +19)
Dew Point20°C (46% RH)
Heat Index35.2°C
QNH1007 hPa
Density Alt2,979 ft
Elevation341 ft
Report Wrong Elevation
Raw Report
METAR VOCL 220800Z 26010KT 8000 FEW015 33/20 Q1007 NOSIG=

Extra information for VOCL:More info

Metar Taf Metar & Taf Last 4 Metars F.Rules Stats Wind Profile Meteogram Temp Stats Airport Information Weather charts Add Link Nearby VenuesMetar ALERT Operation Metar Decoded Social comments